createdAt,value
2022-12-28T00:01:50.726Z,6.84
2022-12-28T00:04:18.695Z,6.85
2022-12-28T00:06:47.504Z,6.89
2022-12-28T00:09:15.220Z,6.93
2022-12-28T00:11:42.938Z,6.96
2022-12-28T00:14:12.050Z,6.99
2022-12-28T00:16:41.774Z,7.08
2022-12-28T00:19:12.789Z,7.06
2022-12-28T00:21:40.433Z,7.10
2022-12-28T00:24:08.747Z,7.13
2022-12-28T00:26:37.087Z,7.14
2022-12-28T00:29:05.864Z,7.15
2022-12-28T00:31:35.488Z,7.17
2022-12-28T00:34:03.580Z,7.23
2022-12-28T00:37:10.212Z,7.20
2022-12-28T00:39:20.286Z,7.17
2022-12-28T00:41:48.756Z,7.13
2022-12-28T00:44:16.411Z,7.11
2022-12-28T00:46:45.501Z,7.10
2022-12-28T00:49:13.229Z,7.09
2022-12-28T00:51:40.901Z,7.14
2022-12-28T00:54:08.646Z,7.15
2022-12-28T00:56:36.410Z,7.14
2022-12-28T00:59:04.380Z,7.16
2022-12-28T01:01:32.108Z,7.15
2022-12-28T01:04:01.505Z,7.15
2022-12-28T01:06:29.918Z,7.15
2022-12-28T01:08:57.665Z,7.16
2022-12-28T01:11:27.847Z,7.14
2022-12-28T01:13:58.057Z,7.10
2022-12-28T01:16:27.780Z,7.10
2022-12-28T01:18:57.354Z,7.10
2022-12-28T01:21:28.379Z,7.08
2022-12-28T01:23:57.998Z,7.05
2022-12-28T01:26:26.908Z,7.06
2022-12-28T01:28:54.685Z,7.03
2022-12-28T01:31:23.285Z,7.03
2022-12-28T01:33:51.023Z,7.03
2022-12-28T01:36:20.387Z,7.05
2022-12-28T01:38:53.283Z,7.04
2022-12-28T01:41:21.364Z,7.05
2022-12-28T01:44:27.667Z,7.06
2022-12-28T01:46:57.951Z,7.06
2022-12-28T01:49:30.865Z,7.07
2022-12-28T01:52:05.349Z,7.04
2022-12-28T01:54:39.163Z,7.04
2022-12-28T01:57:07.159Z,7.07
2022-12-28T01:59:40.303Z,7.12
2022-12-28T02:02:11.224Z,7.14
2022-12-28T02:04:39.259Z,7.19
2022-12-28T02:07:07.054Z,7.19
2022-12-28T02:09:40.083Z,7.19
2022-12-28T02:12:09.267Z,7.26
2022-12-28T02:14:37.370Z,7.23
2022-12-28T02:17:05.299Z,7.28
2022-12-28T02:19:42.144Z,7.30
2022-12-28T02:22:29.134Z,7.31
2022-12-28T02:25:19.762Z,7.35
2022-12-28T02:28:00.868Z,7.39
2022-12-28T02:30:35.377Z,7.46
2022-12-28T02:33:10.136Z,7.52
2022-12-28T02:35:45.497Z,7.58
2022-12-28T02:38:21.243Z,7.62
2022-12-28T02:40:52.285Z,7.66
2022-12-28T02:43:20.242Z,7.71
2022-12-28T02:46:08.172Z,7.76
2022-12-28T02:49:03.985Z,7.83
2022-12-28T02:51:47.603Z,7.88
2022-12-28T02:54:48.084Z,7.88
2022-12-28T02:57:27.301Z,7.90
2022-12-28T03:00:05.965Z,7.95
2022-12-28T03:02:58.943Z,7.93
2022-12-28T03:05:55.237Z,7.96
2022-12-28T03:08:38.664Z,8.01
2022-12-28T03:11:10.298Z,7.97
2022-12-28T03:13:47.009Z,8.00
2022-12-28T03:16:19.647Z,8.01
2022-12-28T03:19:11.804Z,8.02
2022-12-28T03:21:59.945Z,8.03
2022-12-28T03:24:48.236Z,8.08
2022-12-28T03:27:35.526Z,8.08
2022-12-28T03:30:23.951Z,8.10
2022-12-28T03:32:52.228Z,8.16
2022-12-28T03:35:24.520Z,8.20
2022-12-28T03:37:58.029Z,8.22
2022-12-28T03:40:32.370Z,8.24
2022-12-28T03:43:23.133Z,8.24
2022-12-28T03:45:57.437Z,8.28
2022-12-28T03:48:26.154Z,8.31
2022-12-28T03:50:56.091Z,8.36
2022-12-28T03:53:30.210Z,8.39
2022-12-28T03:56:07.856Z,8.40
2022-12-28T03:58:35.582Z,8.37
2022-12-28T04:01:03.350Z,8.39
2022-12-28T04:03:31.440Z,8.39
2022-12-28T04:06:04.242Z,8.42
2022-12-28T04:08:32.937Z,8.39
2022-12-28T04:11:01.246Z,8.39
2022-12-28T04:13:30.636Z,8.41
2022-12-28T04:15:59.702Z,8.42
2022-12-28T04:18:27.423Z,8.44
2022-12-28T04:20:55.601Z,8.42
2022-12-28T04:23:24.741Z,8.45
2022-12-28T04:26:00.762Z,8.46
2022-12-28T04:28:29.090Z,8.48
2022-12-28T04:30:57.548Z,8.49
2022-12-28T04:33:26.189Z,8.62
2022-12-28T04:35:54.113Z,8.63
2022-12-28T04:38:22.601Z,8.62
2022-12-28T04:40:51.610Z,8.63
2022-12-28T04:43:19.361Z,8.62
2022-12-28T04:45:56.639Z,8.62
2022-12-28T04:48:24.437Z,8.59
2022-12-28T04:50:52.426Z,8.54
2022-12-28T04:53:20.181Z,8.52
2022-12-28T04:55:48.337Z,8.56
2022-12-28T04:58:17.710Z,8.55
2022-12-28T05:00:45.523Z,8.52
2022-12-28T05:03:13.244Z,8.51
2022-12-28T05:05:40.962Z,8.52
2022-12-28T05:08:08.708Z,8.54
2022-12-28T05:10:36.990Z,8.54
2022-12-28T05:13:04.685Z,8.53
2022-12-28T05:15:33.912Z,8.63
2022-12-28T05:18:01.632Z,8.69
2022-12-28T05:20:29.396Z,8.69
2022-12-28T05:22:57.071Z,8.70
2022-12-28T05:25:24.781Z,8.77
2022-12-28T05:27:52.492Z,8.81
2022-12-28T05:30:20.278Z,8.82
2022-12-28T05:32:49.386Z,8.85
2022-12-28T05:35:17.155Z,8.85
2022-12-28T05:37:44.918Z,8.89
2022-12-28T05:40:12.998Z,8.85
2022-12-28T05:42:42.209Z,8.80
2022-12-28T05:45:12.931Z,8.75
2022-12-28T05:47:40.682Z,8.80
2022-12-28T05:50:10.036Z,8.75
2022-12-28T05:52:38.758Z,8.66
2022-12-28T05:55:07.609Z,8.69
2022-12-28T05:57:35.299Z,8.64
2022-12-28T06:00:03.305Z,8.56
2022-12-28T06:02:31.115Z,8.60
2022-12-28T06:04:58.888Z,8.60
2022-12-28T06:07:27.918Z,8.65
2022-12-28T06:09:55.638Z,8.61
2022-12-28T06:12:23.259Z,8.65
2022-12-28T06:14:50.888Z,8.62
2022-12-28T06:17:18.629Z,8.61
2022-12-28T06:19:46.354Z,8.63
2022-12-28T06:22:14.020Z,8.61
2022-12-28T06:24:43.037Z,8.61
2022-12-28T06:27:10.720Z,8.62
2022-12-28T06:29:38.339Z,8.59
2022-12-28T06:32:06.304Z,8.62
2022-12-28T06:34:33.961Z,8.65
2022-12-28T06:37:01.623Z,8.63
2022-12-28T06:39:29.280Z,8.67
2022-12-28T06:41:58.573Z,8.66
2022-12-28T06:44:26.263Z,8.61
2022-12-28T06:46:53.915Z,8.64
2022-12-28T06:49:21.562Z,8.65
2022-12-28T06:51:49.211Z,8.64
2022-12-28T06:54:16.986Z,8.60
2022-12-28T06:56:44.622Z,8.65
2022-12-28T06:59:13.648Z,8.67
2022-12-28T07:01:44.664Z,8.70
2022-12-28T07:04:13.291Z,8.71
2022-12-28T07:06:43.259Z,8.69
2022-12-28T07:09:13.442Z,8.69
2022-12-28T07:11:41.262Z,8.68
2022-12-28T07:14:08.961Z,8.72
2022-12-28T07:19:04.572Z,8.70
2022-12-28T07:21:34.535Z,8.72
2022-12-28T07:24:02.614Z,8.76
2022-12-28T07:26:32.666Z,8.73
2022-12-28T07:29:02.466Z,8.85
2022-12-28T07:31:34.720Z,8.80
2022-12-28T07:34:07.614Z,8.79
2022-12-28T07:36:35.339Z,8.83
2022-12-28T07:39:03.956Z,8.82
2022-12-28T07:41:34.015Z,8.76
2022-12-28T07:44:02.045Z,8.79
2022-12-28T07:46:32.045Z,8.78
2022-12-28T07:49:02.688Z,8.80
2022-12-28T07:51:33.261Z,8.87
2022-12-28T07:54:01.054Z,8.88
2022-12-28T07:56:30.544Z,8.86
2022-12-28T07:58:59.913Z,8.89
2022-12-28T08:01:29.601Z,8.93
2022-12-28T08:03:59.381Z,8.97
2022-12-28T08:06:28.749Z,8.97
2022-12-28T08:09:00.199Z,8.97
2022-12-28T08:11:30.588Z,9.02
2022-12-28T08:13:59.060Z,9.05
2022-12-28T08:16:29.043Z,9.05
2022-12-28T08:18:56.725Z,9.06
2022-12-28T08:21:26.722Z,9.08
2022-12-28T08:23:54.440Z,9.17
2022-12-28T08:26:25.381Z,9.17
2022-12-28T08:28:55.924Z,9.13
2022-12-28T08:31:25.153Z,9.20
2022-12-28T08:33:54.303Z,9.20
2022-12-28T08:36:22.503Z,9.32
2022-12-28T08:38:50.468Z,9.35
2022-12-28T08:41:21.253Z,9.33
2022-12-28T08:43:51.079Z,9.39
2022-12-28T08:46:20.777Z,9.43
2022-12-28T08:48:50.230Z,9.43
2022-12-28T08:51:19.929Z,9.42
2022-12-28T08:53:48.383Z,9.46
2022-12-28T08:56:18.314Z,9.51
2022-12-28T08:58:47.199Z,9.52
2022-12-28T09:01:18.452Z,9.51
2022-12-28T09:03:47.746Z,9.49
2022-12-28T09:06:17.547Z,9.49
2022-12-28T09:09:03.153Z,9.51
2022-12-28T09:11:34.533Z,9.50
2022-12-28T09:14:02.660Z,9.51
2022-12-28T09:16:31.931Z,9.58
2022-12-28T09:19:01.404Z,9.59
2022-12-28T09:21:31.449Z,9.62
2022-12-28T09:23:59.475Z,9.64
2022-12-28T09:26:28.950Z,9.68
2022-12-28T09:28:59.952Z,9.68
2022-12-28T09:31:29.528Z,9.70
2022-12-28T09:36:49.569Z,9.80
2022-12-28T09:39:19.113Z,9.87
2022-12-28T09:41:51.186Z,9.90
2022-12-28T09:44:35.014Z,9.90
2022-12-28T09:47:12.624Z,9.93
2022-12-28T09:49:47.399Z,9.95
2022-12-28T09:52:27.306Z,9.96
2022-12-28T09:54:56.243Z,10.06
2022-12-28T09:57:29.131Z,10.10
2022-12-28T09:59:56.905Z,10.07
2022-12-28T10:02:30.896Z,10.09
2022-12-28T10:05:00.333Z,10.09
2022-12-28T10:07:28.049Z,10.12
2022-12-28T10:09:56.090Z,10.16
2022-12-28T10:12:25.394Z,10.13
2022-12-28T10:14:54.683Z,10.17
2022-12-28T10:17:30.769Z,10.19
2022-12-28T10:20:00.645Z,10.20
2022-12-28T10:22:38.169Z,10.27
2022-12-28T10:25:14.852Z,10.29
2022-12-28T10:27:45.441Z,10.31
2022-12-28T10:30:18.181Z,10.33
2022-12-28T10:32:51.713Z,10.33
2022-12-28T10:35:29.103Z,10.35
2022-12-28T10:38:04.144Z,10.37
2022-12-28T10:40:35.463Z,10.35
2022-12-28T10:43:10.132Z,10.39
2022-12-28T10:45:41.826Z,10.39
2022-12-28T10:48:15.317Z,10.36
2022-12-28T10:50:49.909Z,10.40
2022-12-28T10:53:19.802Z,10.45
2022-12-28T10:55:47.868Z,10.49
2022-12-28T10:58:30.224Z,10.53
2022-12-28T11:01:00.917Z,10.54
2022-12-28T11:03:30.867Z,10.59
2022-12-28T11:06:15.118Z,10.64
2022-12-28T11:08:44.556Z,10.68
2022-12-28T11:11:20.992Z,10.76
2022-12-28T11:13:53.184Z,10.76
2022-12-28T11:16:21.164Z,10.73
2022-12-28T11:18:48.988Z,10.78
2022-12-28T11:21:21.002Z,10.81
2022-12-28T11:23:49.664Z,10.91
2022-12-28T11:26:18.202Z,10.88
2022-12-28T11:28:48.778Z,10.83
2022-12-28T11:31:24.045Z,10.84
2022-12-28T11:33:53.970Z,10.91
2022-12-28T11:36:25.532Z,10.87
2022-12-28T11:38:55.125Z,10.89
2022-12-28T11:41:56.085Z,10.87
2022-12-28T11:44:54.111Z,10.85
2022-12-28T11:47:33.051Z,10.86
2022-12-28T11:50:39.319Z,10.89
2022-12-28T11:53:22.730Z,10.87
2022-12-28T11:56:04.194Z,10.86
2022-12-28T11:59:03.477Z,10.90
2022-12-28T12:01:48.614Z,10.87
2022-12-28T12:04:43.749Z,10.86
2022-12-28T12:07:41.200Z,10.89
2022-12-28T12:10:30.761Z,10.89
2022-12-28T12:12:59.106Z,10.90
2022-12-28T12:15:34.012Z,10.90
2022-12-28T12:18:05.061Z,10.97
2022-12-28T12:20:47.677Z,10.96
2022-12-28T12:23:21.994Z,10.96
2022-12-28T12:25:54.693Z,11.00
2022-12-28T12:28:35.325Z,10.93
2022-12-28T12:31:05.804Z,10.92
2022-12-28T12:33:36.971Z,10.91
2022-12-28T12:36:23.856Z,10.94
2022-12-28T12:39:20.587Z,10.97
2022-12-28T12:42:00.717Z,10.96
2022-12-28T12:44:36.141Z,10.93
2022-12-28T12:47:30.125Z,10.86
2022-12-28T12:50:35.913Z,10.88
2022-12-28T12:53:12.300Z,10.86
2022-12-28T12:55:54.479Z,10.87
2022-12-28T12:58:29.469Z,10.82
2022-12-28T13:01:24.124Z,10.82
2022-12-28T13:03:52.930Z,10.82
2022-12-28T13:06:24.233Z,10.77
2022-12-28T13:08:59.039Z,10.77
2022-12-28T13:11:30.912Z,10.76
2022-12-28T13:14:00.088Z,10.76
2022-12-28T13:16:31.084Z,10.78
2022-12-28T13:19:00.629Z,10.78
2022-12-28T13:21:30.430Z,10.79
2022-12-28T13:23:58.308Z,10.81
2022-12-28T13:26:29.534Z,10.83
2022-12-28T13:29:01.807Z,10.85
2022-12-28T13:31:35.233Z,10.85
2022-12-28T13:34:05.263Z,10.87
2022-12-28T13:36:33.494Z,10.85
2022-12-28T13:39:14.599Z,10.87
2022-12-28T13:41:50.198Z,10.89
2022-12-28T13:44:29.755Z,10.89
2022-12-28T13:47:03.811Z,10.91
2022-12-28T13:49:36.285Z,10.95
2022-12-28T13:52:07.727Z,10.97
2022-12-28T13:54:35.931Z,11.00
2022-12-28T13:57:36.425Z,11.00
2022-12-28T13:59:55.570Z,11.02
2022-12-28T14:02:25.620Z,10.99
2022-12-28T14:04:55.261Z,11.01
2022-12-28T14:07:26.639Z,11.00
2022-12-28T14:09:55.299Z,11.01
2022-12-28T14:12:23.644Z,10.99
2022-12-28T14:14:53.721Z,10.97
2022-12-28T14:17:22.968Z,11.04
2022-12-28T14:19:52.704Z,11.00
2022-12-28T14:22:29.021Z,11.01
2022-12-28T14:25:08.367Z,11.03
2022-12-28T14:27:40.860Z,11.09
2022-12-28T14:30:22.061Z,11.10
2022-12-28T14:32:49.840Z,11.05
2022-12-28T14:35:21.246Z,11.07
2022-12-28T14:37:53.621Z,11.08
2022-12-28T14:40:28.430Z,11.05
2022-12-28T14:42:57.486Z,11.12
2022-12-28T14:46:05.277Z,11.15
2022-12-28T14:48:34.713Z,11.17
2022-12-28T14:51:04.567Z,11.15
2022-12-28T14:53:33.244Z,11.16
2022-12-28T14:56:05.385Z,11.16
2022-12-28T14:58:39.395Z,11.15
2022-12-28T15:01:10.422Z,11.13
2022-12-28T15:03:53.161Z,11.13
2022-12-28T15:06:20.862Z,11.14
2022-12-28T15:08:49.938Z,11.19
2022-12-28T15:11:19.722Z,11.20
2022-12-28T15:13:47.787Z,11.16
2022-12-28T15:16:18.085Z,11.14
2022-12-28T15:18:46.934Z,11.21
2022-12-28T15:21:17.349Z,11.19
2022-12-28T15:23:45.383Z,11.13
2022-12-28T15:26:14.736Z,11.16
2022-12-28T15:28:42.884Z,11.14
2022-12-28T15:31:13.234Z,11.11
2022-12-28T15:33:42.537Z,11.06
2022-12-28T15:36:17.236Z,11.03
2022-12-28T15:38:46.047Z,11.08
2022-12-28T15:41:27.763Z,11.09
2022-12-28T15:43:55.582Z,11.08
2022-12-28T15:46:23.320Z,11.10
2022-12-28T15:48:52.480Z,11.09
2022-12-28T15:51:20.291Z,11.05
2022-12-28T15:53:48.003Z,11.10
2022-12-28T15:56:21.962Z,11.11
2022-12-28T15:58:49.881Z,11.11
2022-12-28T16:01:17.604Z,11.06
2022-12-28T16:03:45.451Z,11.09
2022-12-28T16:06:14.603Z,11.09
2022-12-28T16:08:42.381Z,11.09
2022-12-28T16:11:10.968Z,11.13
2022-12-28T16:13:38.723Z,11.12
2022-12-28T16:16:07.015Z,11.12
2022-12-28T16:18:34.816Z,11.09
2022-12-28T16:21:02.990Z,11.15
2022-12-28T16:23:33.364Z,11.11
2022-12-28T16:26:01.240Z,11.11
2022-12-28T16:28:29.445Z,11.14
2022-12-28T16:30:57.809Z,11.25
2022-12-28T16:33:26.012Z,11.27
2022-12-28T16:35:59.566Z,11.23
2022-12-28T16:38:29.578Z,11.22
2022-12-28T16:40:58.953Z,11.25
2022-12-28T16:43:26.664Z,11.26
2022-12-28T16:45:54.445Z,11.28
2022-12-28T16:48:22.293Z,11.29
2022-12-28T16:50:58.929Z,11.25
2022-12-28T16:53:26.871Z,11.24
2022-12-28T16:55:54.665Z,11.23
2022-12-28T16:58:23.737Z,11.24
2022-12-28T17:00:51.530Z,11.30
2022-12-28T17:03:19.307Z,11.25
2022-12-28T17:05:50.407Z,11.19
2022-12-28T17:08:19.143Z,11.15
2022-12-28T17:10:47.325Z,11.13
2022-12-28T17:13:16.240Z,11.12
2022-12-28T17:15:46.262Z,11.12
2022-12-28T17:18:14.676Z,11.08
2022-12-28T17:20:42.646Z,11.08
2022-12-28T17:23:10.403Z,11.04
2022-12-28T17:25:38.315Z,11.00
2022-12-28T17:28:06.333Z,10.97
2022-12-28T17:30:34.780Z,10.97
2022-12-28T17:33:04.081Z,10.91
2022-12-28T17:35:31.780Z,10.91
2022-12-28T17:37:59.695Z,10.84
2022-12-28T17:40:28.165Z,10.79
2022-12-28T17:42:56.237Z,10.78
2022-12-28T17:45:24.446Z,10.77
2022-12-28T17:47:53.104Z,10.69
2022-12-28T17:50:23.377Z,10.70
2022-12-28T17:52:53.403Z,10.68
2022-12-28T17:55:21.568Z,10.69
2022-12-28T17:57:49.267Z,10.71
2022-12-28T18:00:18.967Z,10.69
2022-12-28T18:02:47.234Z,10.65
2022-12-28T18:05:15.062Z,10.69
2022-12-28T18:07:44.607Z,10.70
2022-12-28T18:10:12.699Z,10.62
2022-12-28T18:12:40.437Z,10.59
2022-12-28T18:15:09.072Z,10.62
2022-12-28T18:17:37.284Z,10.55
2022-12-28T18:20:05.736Z,10.54
2022-12-28T18:22:33.487Z,10.48
2022-12-28T18:25:02.600Z,10.45
2022-12-28T18:27:30.343Z,10.37
2022-12-28T18:29:58.037Z,10.34
2022-12-28T18:32:25.832Z,10.30
2022-12-28T18:34:53.875Z,10.29
2022-12-28T18:37:21.638Z,10.21
2022-12-28T18:39:49.387Z,10.24
2022-12-28T18:42:19.399Z,10.20
2022-12-28T18:44:47.704Z,10.19
2022-12-28T18:47:16.332Z,10.21
2022-12-28T18:49:47.184Z,10.17
2022-12-28T18:52:15.462Z,10.24
2022-12-28T18:54:43.703Z,10.22
2022-12-28T18:57:11.815Z,10.14
2022-12-28T18:59:40.926Z,10.12
2022-12-28T19:02:19.283Z,10.09
2022-12-28T19:04:48.019Z,10.08
2022-12-28T19:07:18.115Z,10.07
2022-12-28T19:10:12.453Z,10.07
2022-12-28T19:12:44.266Z,10.04
2022-12-28T19:15:13.792Z,10.03
2022-12-28T19:17:41.606Z,10.06
2022-12-28T19:20:10.149Z,10.02
2022-12-28T19:22:37.961Z,10.01
2022-12-28T19:25:06.716Z,10.01
2022-12-28T19:27:34.559Z,10.07
2022-12-28T19:30:05.091Z,10.08
2022-12-28T19:32:34.873Z,10.06
2022-12-28T19:35:02.888Z,10.06
2022-12-28T19:37:30.676Z,10.01
2022-12-28T19:39:58.524Z,10.02
2022-12-28T19:42:26.494Z,10.01
2022-12-28T19:44:54.234Z,10.04
2022-12-28T19:47:21.912Z,10.04
2022-12-28T19:49:51.093Z,10.04
2022-12-28T19:52:18.853Z,10.04
2022-12-28T19:54:46.712Z,10.07
2022-12-28T19:57:14.561Z,10.22
2022-12-28T19:59:42.384Z,10.25
2022-12-28T20:02:12.052Z,10.28
2022-12-28T20:04:39.852Z,10.26
2022-12-28T20:07:08.999Z,10.28
2022-12-28T20:09:38.402Z,10.45
2022-12-28T20:12:06.988Z,10.51
2022-12-28T20:14:34.931Z,10.46
2022-12-28T20:17:02.656Z,10.48
2022-12-28T20:19:32.769Z,10.50
2022-12-28T20:22:02.112Z,10.49
2022-12-28T20:24:31.286Z,10.50
2022-12-28T20:27:01.696Z,10.50
2022-12-28T20:29:29.873Z,10.55
2022-12-28T20:31:57.728Z,10.57
2022-12-28T20:34:27.734Z,10.56
2022-12-28T20:36:55.575Z,10.59
2022-12-28T20:39:23.332Z,10.64
2022-12-28T20:42:21.351Z,10.68
2022-12-28T20:44:49.082Z,10.68
2022-12-28T20:47:18.300Z,10.70
2022-12-28T20:49:46.495Z,10.73
2022-12-28T20:52:14.190Z,10.73
2022-12-28T20:54:42.075Z,10.73
2022-12-28T20:57:11.275Z,10.77
2022-12-28T20:59:39.107Z,10.85
2022-12-28T21:02:06.885Z,10.91
2022-12-28T21:04:34.670Z,10.94
2022-12-28T21:07:02.400Z,10.96
2022-12-28T21:09:30.215Z,10.94
2022-12-28T21:11:58.356Z,10.93
2022-12-28T21:14:27.503Z,10.89
2022-12-28T21:16:55.298Z,10.98
2022-12-28T21:19:23.111Z,11.00
2022-12-28T21:21:50.868Z,10.99
2022-12-28T21:24:24.421Z,11.10
2022-12-28T21:26:52.201Z,11.12
2022-12-28T21:29:25.517Z,11.22
2022-12-28T21:31:54.990Z,11.20
2022-12-28T21:34:23.013Z,11.19
2022-12-28T21:36:50.764Z,11.21
2022-12-28T21:39:18.727Z,11.24
2022-12-28T21:41:52.823Z,11.24
2022-12-28T21:44:23.293Z,11.25
2022-12-28T21:46:52.460Z,11.29
2022-12-28T21:49:25.094Z,11.33
2022-12-28T21:51:52.834Z,11.33
2022-12-28T21:54:22.191Z,11.39
2022-12-28T21:56:55.736Z,11.41
2022-12-28T21:59:24.691Z,11.38
2022-12-28T22:02:11.505Z,11.41
2022-12-28T22:05:02.454Z,11.51
2022-12-28T22:07:31.218Z,11.50
2022-12-28T22:10:16.501Z,11.49
2022-12-28T22:12:44.280Z,11.47
2022-12-28T22:15:31.425Z,11.49
2022-12-28T22:18:01.858Z,11.49
2022-12-28T22:20:31.475Z,11.49
2022-12-28T22:23:00.774Z,11.50
2022-12-28T22:25:30.160Z,11.53
2022-12-28T22:27:58.437Z,11.55
2022-12-28T22:30:26.723Z,11.59
2022-12-28T22:32:54.475Z,11.58
2022-12-28T22:35:22.578Z,11.55
2022-12-28T22:37:51.721Z,11.57
2022-12-28T22:40:20.237Z,11.57
2022-12-28T22:42:50.162Z,11.64
2022-12-28T22:45:19.449Z,11.64
2022-12-28T22:47:47.854Z,11.66
2022-12-28T22:50:17.804Z,11.68
2022-12-28T22:52:46.130Z,11.67
2022-12-28T22:55:15.781Z,11.67
2022-12-28T22:57:44.067Z,11.69
2022-12-28T23:00:14.425Z,11.70
2022-12-28T23:02:42.976Z,11.72
2022-12-28T23:05:11.067Z,11.76
2022-12-28T23:07:39.542Z,11.82
2022-12-28T23:10:10.161Z,11.85
2022-12-28T23:12:39.306Z,11.90
2022-12-28T23:15:19.767Z,11.86
2022-12-28T23:17:48.718Z,11.89
2022-12-28T23:20:34.451Z,11.89
2022-12-28T23:23:19.612Z,11.87
2022-12-28T23:26:04.828Z,11.85
2022-12-28T23:28:36.134Z,11.91
2022-12-28T23:31:04.477Z,11.93
2022-12-28T23:33:32.258Z,11.92
2022-12-28T23:36:02.526Z,11.92
2022-12-28T23:38:31.478Z,11.92
2022-12-28T23:41:13.129Z,11.93
2022-12-28T23:43:43.019Z,11.98
2022-12-28T23:46:10.853Z,12.01
2022-12-28T23:48:38.728Z,12.02
2022-12-28T23:51:08.991Z,12.10
2022-12-28T23:53:36.843Z,12.06
2022-12-28T23:56:04.684Z,12.05
2022-12-28T23:58:32.425Z,12.05
